sensor_id;sensor_type;location;lat;lon;timestamp;P1;durP1;ratioP1;P2;durP2;ratioP2
8171;SDS011;4127;47.908;10.850;2023-02-13T00:06:16;38.20;;;26.77;;
8171;SDS011;4127;47.908;10.850;2023-02-13T00:08:43;37.20;;;25.43;;
8171;SDS011;4127;47.908;10.850;2023-02-13T00:11:10;36.63;;;25.40;;
8171;SDS011;4127;47.908;10.850;2023-02-13T00:13:37;40.30;;;26.63;;
8171;SDS011;4127;47.908;10.850;2023-02-13T00:16:04;35.53;;;25.27;;
8171;SDS011;4127;47.908;10.850;2023-02-13T00:18:35;35.33;;;25.17;;
8171;SDS011;4127;47.908;10.850;2023-02-13T00:21:04;35.50;;;25.27;;
8171;SDS011;4127;47.908;10.850;2023-02-13T00:23:36;42.33;;;26.17;;
8171;SDS011;4127;47.908;10.850;2023-02-13T00:26:05;37.50;;;25.33;;
8171;SDS011;4127;47.908;10.850;2023-02-13T00:28:34;42.70;;;27.10;;
8171;SDS011;4127;47.908;10.850;2023-02-13T00:31:02;46.90;;;27.73;;
8171;SDS011;4127;47.908;10.850;2023-02-13T00:33:32;39.50;;;25.20;;
8171;SDS011;4127;47.908;10.850;2023-02-13T00:36:06;39.30;;;25.17;;
8171;SDS011;4127;47.908;10.850;2023-02-13T00:38:36;37.20;;;24.67;;
8171;SDS011;4127;47.908;10.850;2023-02-13T00:41:03;35.07;;;24.27;;
8171;SDS011;4127;47.908;10.850;2023-02-13T00:43:31;34.50;;;23.87;;
8171;SDS011;4127;47.908;10.850;2023-02-13T00:45:58;37.07;;;23.90;;
8171;SDS011;4127;47.908;10.850;2023-02-13T00:48:25;35.57;;;23.37;;
8171;SDS011;4127;47.908;10.850;2023-02-13T00:50:55;41.50;;;25.33;;
8171;SDS011;4127;47.908;10.850;2023-02-13T00:53:23;37.13;;;24.70;;
8171;SDS011;4127;47.908;10.850;2023-02-13T00:55:51;54.07;;;28.03;;
8171;SDS011;4127;47.908;10.850;2023-02-13T00:58:18;51.30;;;27.20;;
8171;SDS011;4127;47.908;10.850;2023-02-13T01:00:46;45.33;;;27.80;;
8171;SDS011;4127;47.908;10.850;2023-02-13T01:03:13;34.57;;;23.50;;
8171;SDS011;4127;47.908;10.850;2023-02-13T01:05:41;47.97;;;26.97;;
8171;SDS011;4127;47.908;10.850;2023-02-13T01:08:09;60.00;;;41.87;;
8171;SDS011;4127;47.908;10.850;2023-02-13T01:10:38;49.27;;;30.50;;
8171;SDS011;4127;47.908;10.850;2023-02-13T01:13:05;41.77;;;27.47;;
8171;SDS011;4127;47.908;10.850;2023-02-13T01:15:33;46.03;;;25.63;;
8171;SDS011;4127;47.908;10.850;2023-02-13T01:18:00;73.07;;;29.43;;
8171;SDS011;4127;47.908;10.850;2023-02-13T01:20:27;58.93;;;26.67;;
8171;SDS011;4127;47.908;10.850;2023-02-13T01:22:56;43.37;;;25.00;;
8171;SDS011;4127;47.908;10.850;2023-02-13T01:25:23;38.20;;;25.00;;
8171;SDS011;4127;47.908;10.850;2023-02-13T01:27:50;29.33;;;21.13;;
8171;SDS011;4127;47.908;10.850;2023-02-13T01:30:17;30.17;;;21.63;;
8171;SDS011;4127;47.908;10.850;2023-02-13T01:32:45;26.80;;;19.47;;
8171;SDS011;4127;47.908;10.850;2023-02-13T01:35:13;30.10;;;21.47;;
8171;SDS011;4127;47.908;10.850;2023-02-13T01:37:40;25.40;;;18.97;;
8171;SDS011;4127;47.908;10.850;2023-02-13T01:40:10;26.93;;;18.80;;
8171;SDS011;4127;47.908;10.850;2023-02-13T01:42:38;39.10;;;20.73;;
8171;SDS011;4127;47.908;10.850;2023-02-13T01:45:24;50.10;;;24.37;;
8171;SDS011;4127;47.908;10.850;2023-02-13T01:47:57;35.70;;;21.60;;
8171;SDS011;4127;47.908;10.850;2023-02-13T01:50:35;28.27;;;20.80;;
8171;SDS011;4127;47.908;10.850;2023-02-13T01:53:06;60.97;;;25.20;;
8171;SDS011;4127;47.908;10.850;2023-02-13T01:55:45;38.80;;;23.30;;
8171;SDS011;4127;47.908;10.850;2023-02-13T01:58:17;53.37;;;26.33;;
8171;SDS011;4127;47.908;10.850;2023-02-13T02:00:52;57.43;;;23.90;;
8171;SDS011;4127;47.908;10.850;2023-02-13T02:03:21;45.43;;;23.77;;
8171;SDS011;4127;47.908;10.850;2023-02-13T02:05:53;43.30;;;23.93;;
8171;SDS011;4127;47.908;10.850;2023-02-13T02:08:21;60.80;;;25.03;;
8171;SDS011;4127;47.908;10.850;2023-02-13T02:10:49;36.57;;;23.23;;
8171;SDS011;4127;47.908;10.850;2023-02-13T02:13:17;56.83;;;24.47;;
8171;SDS011;4127;47.908;10.850;2023-02-13T02:15:46;34.13;;;24.07;;
8171;SDS011;4127;47.908;10.850;2023-02-13T02:18:21;40.63;;;23.97;;
8171;SDS011;4127;47.908;10.850;2023-02-13T02:23:42;42.57;;;22.93;;
8171;SDS011;4127;47.908;10.850;2023-02-13T02:29:07;80.80;;;28.00;;
8171;SDS011;4127;47.908;10.850;2023-02-13T02:32:15;67.70;;;24.50;;
8171;SDS011;4127;47.908;10.850;2023-02-13T02:34:55;42.63;;;22.10;;
8171;SDS011;4127;47.908;10.850;2023-02-13T02:40:35;71.13;;;27.30;;
8171;SDS011;4127;47.908;10.850;2023-02-13T02:43:29;89.43;;;29.23;;
8171;SDS011;4127;47.908;10.850;2023-02-13T02:48:54;38.80;;;21.40;;
8171;SDS011;4127;47.908;10.850;2023-02-13T02:54:36;21.27;;;16.60;;
8171;SDS011;4127;47.908;10.850;2023-02-13T02:57:43;29.57;;;17.83;;
8171;SDS011;4127;47.908;10.850;2023-02-13T03:00:32;22.67;;;16.40;;
8171;SDS011;4127;47.908;10.850;2023-02-13T03:03:24;20.10;;;15.93;;
8171;SDS011;4127;47.908;10.850;2023-02-13T03:06:55;19.60;;;15.40;;
8171;SDS011;4127;47.908;10.850;2023-02-13T03:09:15;26.43;;;16.60;;
8171;SDS011;4127;47.908;10.850;2023-02-13T03:12:07;18.83;;;14.97;;
8171;SDS011;4127;47.908;10.850;2023-02-13T03:14:53;19.17;;;15.87;;
8171;SDS011;4127;47.908;10.850;2023-02-13T03:17:20;76.37;;;23.30;;
8171;SDS011;4127;47.908;10.850;2023-02-13T03:29:02;16.43;;;14.07;;
8171;SDS011;4127;47.908;10.850;2023-02-13T03:32:20;45.53;;;19.20;;
8171;SDS011;4127;47.908;10.850;2023-02-13T03:35:03;26.77;;;18.20;;
8171;SDS011;4127;47.908;10.850;2023-02-13T03:37:59;136.00;;;26.90;;
8171;SDS011;4127;47.908;10.850;2023-02-13T03:43:31;42.17;;;19.23;;
8171;SDS011;4127;47.908;10.850;2023-02-13T03:46:10;117.63;;;31.27;;
8171;SDS011;4127;47.908;10.850;2023-02-13T03:48:38;54.57;;;19.27;;
8171;SDS011;4127;47.908;10.850;2023-02-13T03:51:28;20.00;;;15.53;;
8171;SDS011;4127;47.908;10.850;2023-02-13T03:54:05;19.60;;;15.93;;
8171;SDS011;4127;47.908;10.850;2023-02-13T03:56:40;24.57;;;16.60;;
8171;SDS011;4127;47.908;10.850;2023-02-13T03:59:31;17.37;;;14.17;;
8171;SDS011;4127;47.908;10.850;2023-02-13T04:02:09;17.23;;;14.27;;
8171;SDS011;4127;47.908;10.850;2023-02-13T04:04:42;17.90;;;14.27;;
8171;SDS011;4127;47.908;10.850;2023-02-13T04:07:16;19.93;;;14.87;;
8171;SDS011;4127;47.908;10.850;2023-02-13T04:09:58;15.73;;;13.53;;
8171;SDS011;4127;47.908;10.850;2023-02-13T04:18:15;16.33;;;13.27;;
8171;SDS011;4127;47.908;10.850;2023-02-13T04:20:45;17.23;;;14.03;;
8171;SDS011;4127;47.908;10.850;2023-02-13T04:23:13;18.07;;;14.30;;
8171;SDS011;4127;47.908;10.850;2023-02-13T04:25:42;17.47;;;13.77;;
8171;SDS011;4127;47.908;10.850;2023-02-13T04:28:12;15.90;;;13.03;;
8171;SDS011;4127;47.908;10.850;2023-02-13T04:30:39;14.50;;;11.63;;
8171;SDS011;4127;47.908;10.850;2023-02-13T04:33:05;14.57;;;11.83;;
8171;SDS011;4127;47.908;10.850;2023-02-13T04:35:32;13.67;;;11.87;;
8171;SDS011;4127;47.908;10.850;2023-02-13T04:38:00;15.13;;;12.83;;
8171;SDS011;4127;47.908;10.850;2023-02-13T04:40:27;13.90;;;12.27;;
8171;SDS011;4127;47.908;10.850;2023-02-13T04:42:54;17.13;;;14.03;;
8171;SDS011;4127;47.908;10.850;2023-02-13T04:45:21;17.20;;;13.83;;
8171;SDS011;4127;47.908;10.850;2023-02-13T04:47:51;18.60;;;14.00;;
8171;SDS011;4127;47.908;10.850;2023-02-13T04:50:19;16.73;;;13.80;;
8171;SDS011;4127;47.908;10.850;2023-02-13T04:52:47;17.03;;;14.17;;
8171;SDS011;4127;47.908;10.850;2023-02-13T04:55:18;15.90;;;13.30;;
8171;SDS011;4127;47.908;10.850;2023-02-13T04:57:45;15.67;;;12.67;;
8171;SDS011;4127;47.908;10.850;2023-02-13T05:00:13;14.53;;;12.43;;
8171;SDS011;4127;47.908;10.850;2023-02-13T05:02:40;13.77;;;11.73;;
8171;SDS011;4127;47.908;10.850;2023-02-13T05:05:07;15.13;;;12.60;;
8171;SDS011;4127;47.908;10.850;2023-02-13T05:07:33;13.67;;;11.40;;
8171;SDS011;4127;47.908;10.850;2023-02-13T05:10:00;15.67;;;12.23;;
8171;SDS011;4127;47.908;10.850;2023-02-13T05:12:27;16.53;;;13.57;;
8171;SDS011;4127;47.908;10.850;2023-02-13T05:14:54;15.53;;;13.07;;
8171;SDS011;4127;47.908;10.850;2023-02-13T05:17:20;16.17;;;12.67;;
8171;SDS011;4127;47.908;10.850;2023-02-13T05:19:47;15.40;;;12.60;;
8171;SDS011;4127;47.908;10.850;2023-02-13T05:22:14;16.10;;;13.07;;
8171;SDS011;4127;47.908;10.850;2023-02-13T05:24:59;14.33;;;12.50;;
8171;SDS011;4127;47.908;10.850;2023-02-13T05:27:25;15.20;;;12.50;;
8171;SDS011;4127;47.908;10.850;2023-02-13T05:29:52;14.17;;;12.33;;
8171;SDS011;4127;47.908;10.850;2023-02-13T05:32:19;15.47;;;12.80;;
8171;SDS011;4127;47.908;10.850;2023-02-13T05:34:46;17.00;;;13.27;;
8171;SDS011;4127;47.908;10.850;2023-02-13T05:37:12;17.17;;;13.77;;
8171;SDS011;4127;47.908;10.850;2023-02-13T05:39:39;16.63;;;13.87;;
8171;SDS011;4127;47.908;10.850;2023-02-13T05:42:06;18.73;;;13.87;;
8171;SDS011;4127;47.908;10.850;2023-02-13T05:44:32;17.13;;;13.90;;
8171;SDS011;4127;47.908;10.850;2023-02-13T05:46:59;17.73;;;14.03;;
8171;SDS011;4127;47.908;10.850;2023-02-13T05:49:26;17.70;;;14.17;;
8171;SDS011;4127;47.908;10.850;2023-02-13T05:51:53;22.23;;;16.20;;
8171;SDS011;4127;47.908;10.850;2023-02-13T05:54:19;17.73;;;14.43;;
8171;SDS011;4127;47.908;10.850;2023-02-13T05:56:46;18.43;;;14.27;;
8171;SDS011;4127;47.908;10.850;2023-02-13T05:59:13;18.87;;;15.07;;
8171;SDS011;4127;47.908;10.850;2023-02-13T06:01:40;17.83;;;14.40;;
8171;SDS011;4127;47.908;10.850;2023-02-13T06:04:06;18.13;;;14.63;;
8171;SDS011;4127;47.908;10.850;2023-02-13T12:06:00;16.17;;;13.97;;
8171;SDS011;4127;47.908;10.850;2023-02-13T12:08:42;18.23;;;14.13;;
8171;SDS011;4127;47.908;10.850;2023-02-13T12:13:40;18.13;;;15.10;;
8171;SDS011;4127;47.908;10.850;2023-02-13T12:16:13;18.90;;;15.87;;
8171;SDS011;4127;47.908;10.850;2023-02-13T12:18:57;19.00;;;15.63;;
8171;SDS011;4127;47.908;10.850;2023-02-13T12:43:36;19.10;;;14.80;;
8171;SDS011;4127;47.908;10.850;2023-02-13T12:46:16;18.67;;;15.40;;
8171;SDS011;4127;47.908;10.850;2023-02-13T12:48:57;16.70;;;13.47;;
8171;SDS011;4127;47.908;10.850;2023-02-13T12:57:17;17.17;;;14.67;;
8171;SDS011;4127;47.908;10.850;2023-02-13T13:17:10;15.07;;;13.17;;
8171;SDS011;4127;47.908;10.850;2023-02-13T13:22:53;15.27;;;13.13;;
8171;SDS011;4127;47.908;10.850;2023-02-13T13:28:02;16.43;;;14.70;;
8171;SDS011;4127;47.908;10.850;2023-02-13T13:30:37;18.20;;;14.67;;
8171;SDS011;4127;47.908;10.850;2023-02-13T13:35:36;15.17;;;13.57;;
8171;SDS011;4127;47.908;10.850;2023-02-13T13:43:25;15.03;;;13.07;;
8171;SDS011;4127;47.908;10.850;2023-02-13T13:49:24;19.93;;;13.23;;
8171;SDS011;4127;47.908;10.850;2023-02-13T13:51:53;15.23;;;13.43;;
8171;SDS011;4127;47.908;10.850;2023-02-13T13:54:34;14.73;;;13.23;;
8171;SDS011;4127;47.908;10.850;2023-02-13T14:07:57;13.73;;;12.33;;
8171;SDS011;4127;47.908;10.850;2023-02-13T14:20:41;15.33;;;13.50;;
8171;SDS011;4127;47.908;10.850;2023-02-13T14:29:26;14.17;;;12.77;;
8171;SDS011;4127;47.908;10.850;2023-02-13T14:31:42;17.57;;;14.27;;
8171;SDS011;4127;47.908;10.850;2023-02-13T14:34:30;16.43;;;13.83;;
8171;SDS011;4127;47.908;10.850;2023-02-13T14:37:01;14.77;;;13.20;;
8171;SDS011;4127;47.908;10.850;2023-02-13T14:42:36;14.80;;;13.30;;
8171;SDS011;4127;47.908;10.850;2023-02-13T14:45:10;17.67;;;15.70;;
8171;SDS011;4127;47.908;10.850;2023-02-13T14:47:42;16.63;;;14.57;;
8171;SDS011;4127;47.908;10.850;2023-02-13T14:50:23;17.57;;;15.00;;
8171;SDS011;4127;47.908;10.850;2023-02-13T14:52:54;16.20;;;14.43;;
8171;SDS011;4127;47.908;10.850;2023-02-13T14:55:30;17.13;;;14.60;;
8171;SDS011;4127;47.908;10.850;2023-02-13T14:58:07;17.00;;;15.20;;
8171;SDS011;4127;47.908;10.850;2023-02-13T15:01:05;17.13;;;15.07;;
8171;SDS011;4127;47.908;10.850;2023-02-13T15:03:53;17.40;;;15.17;;
8171;SDS011;4127;47.908;10.850;2023-02-13T15:06:26;16.83;;;15.03;;
8171;SDS011;4127;47.908;10.850;2023-02-13T15:09:00;18.03;;;15.40;;
8171;SDS011;4127;47.908;10.850;2023-02-13T15:17:06;18.67;;;15.50;;
8171;SDS011;4127;47.908;10.850;2023-02-13T15:19:49;23.07;;;18.13;;
8171;SDS011;4127;47.908;10.850;2023-02-13T15:22:40;21.27;;;16.70;;
8171;SDS011;4127;47.908;10.850;2023-02-13T15:25:24;24.83;;;18.67;;
8171;SDS011;4127;47.908;10.850;2023-02-13T15:27:52;21.43;;;18.00;;
8171;SDS011;4127;47.908;10.850;2023-02-13T15:30:25;24.03;;;19.47;;
8171;SDS011;4127;47.908;10.850;2023-02-13T15:32:54;21.93;;;17.53;;
8171;SDS011;4127;47.908;10.850;2023-02-13T15:35:23;20.67;;;16.23;;
8171;SDS011;4127;47.908;10.850;2023-02-13T15:37:56;26.30;;;19.60;;
8171;SDS011;4127;47.908;10.850;2023-02-13T15:40:28;35.83;;;25.47;;
8171;SDS011;4127;47.908;10.850;2023-02-13T15:43:02;29.80;;;22.50;;
8171;SDS011;4127;47.908;10.850;2023-02-13T15:45:29;24.77;;;19.40;;
8171;SDS011;4127;47.908;10.850;2023-02-13T15:47:56;33.90;;;25.50;;
8171;SDS011;4127;47.908;10.850;2023-02-13T15:50:30;26.57;;;20.70;;
8171;SDS011;4127;47.908;10.850;2023-02-13T15:53:03;31.20;;;23.07;;
8171;SDS011;4127;47.908;10.850;2023-02-13T15:55:35;23.57;;;18.33;;
8171;SDS011;4127;47.908;10.850;2023-02-13T15:58:03;23.43;;;18.90;;
8171;SDS011;4127;47.908;10.850;2023-02-13T16:00:34;29.90;;;21.93;;
8171;SDS011;4127;47.908;10.850;2023-02-13T16:03:04;24.37;;;19.17;;
8171;SDS011;4127;47.908;10.850;2023-02-13T16:05:38;26.03;;;20.73;;
8171;SDS011;4127;47.908;10.850;2023-02-13T16:22:05;29.03;;;23.47;;
8171;SDS011;4127;47.908;10.850;2023-02-13T16:24:51;26.37;;;20.97;;
8171;SDS011;4127;47.908;10.850;2023-02-13T16:27:21;21.87;;;17.47;;
8171;SDS011;4127;47.908;10.850;2023-02-13T16:29:56;22.17;;;17.67;;
8171;SDS011;4127;47.908;10.850;2023-02-13T16:32:29;22.07;;;19.00;;
8171;SDS011;4127;47.908;10.850;2023-02-13T16:37:50;20.40;;;15.33;;
8171;SDS011;4127;47.908;10.850;2023-02-13T16:48:40;19.27;;;15.23;;
8171;SDS011;4127;47.908;10.850;2023-02-13T16:51:08;18.53;;;14.63;;
8171;SDS011;4127;47.908;10.850;2023-02-13T16:53:34;18.47;;;14.67;;
8171;SDS011;4127;47.908;10.850;2023-02-13T16:56:04;20.27;;;15.50;;
8171;SDS011;4127;47.908;10.850;2023-02-13T16:58:33;18.90;;;15.27;;
8171;SDS011;4127;47.908;10.850;2023-02-13T17:01:01;18.77;;;14.70;;
8171;SDS011;4127;47.908;10.850;2023-02-13T17:03:33;18.90;;;15.07;;
8171;SDS011;4127;47.908;10.850;2023-02-13T17:06:00;17.37;;;14.50;;
8171;SDS011;4127;47.908;10.850;2023-02-13T17:08:29;17.43;;;14.13;;
8171;SDS011;4127;47.908;10.850;2023-02-13T17:11:06;19.97;;;15.40;;
8171;SDS011;4127;47.908;10.850;2023-02-13T17:13:42;17.40;;;14.37;;
8171;SDS011;4127;47.908;10.850;2023-02-13T17:16:08;18.03;;;14.40;;
8171;SDS011;4127;47.908;10.850;2023-02-13T17:18:35;17.27;;;14.13;;
8171;SDS011;4127;47.908;10.850;2023-02-13T17:21:02;18.03;;;13.53;;
8171;SDS011;4127;47.908;10.850;2023-02-13T17:23:30;23.10;;;18.83;;
8171;SDS011;4127;47.908;10.850;2023-02-13T17:25:57;21.27;;;18.97;;
8171;SDS011;4127;47.908;10.850;2023-02-13T17:28:24;25.20;;;20.37;;
8171;SDS011;4127;47.908;10.850;2023-02-13T17:30:53;21.67;;;18.17;;
8171;SDS011;4127;47.908;10.850;2023-02-13T17:33:23;21.27;;;18.27;;
8171;SDS011;4127;47.908;10.850;2023-02-13T17:35:50;19.73;;;16.50;;
8171;SDS011;4127;47.908;10.850;2023-02-13T17:38:18;19.37;;;16.13;;
8171;SDS011;4127;47.908;10.850;2023-02-13T17:40:45;18.93;;;15.37;;
8171;SDS011;4127;47.908;10.850;2023-02-13T17:43:13;18.60;;;14.33;;
8171;SDS011;4127;47.908;10.850;2023-02-13T17:45:41;18.30;;;14.60;;
8171;SDS011;4127;47.908;10.850;2023-02-13T17:48:08;18.30;;;14.07;;
8171;SDS011;4127;47.908;10.850;2023-02-13T17:50:35;20.57;;;15.17;;
8171;SDS011;4127;47.908;10.850;2023-02-13T17:53:03;21.30;;;17.53;;
8171;SDS011;4127;47.908;10.850;2023-02-13T17:55:32;22.67;;;17.90;;
8171;SDS011;4127;47.908;10.850;2023-02-13T17:57:59;21.47;;;16.70;;
8171;SDS011;4127;47.908;10.850;2023-02-13T18:00:28;19.00;;;16.23;;
8171;SDS011;4127;47.908;10.850;2023-02-13T18:02:57;18.03;;;14.93;;
8171;SDS011;4127;47.908;10.850;2023-02-13T18:05:24;32.60;;;21.43;;
8171;SDS011;4127;47.908;10.850;2023-02-13T18:07:53;33.23;;;21.97;;
8171;SDS011;4127;47.908;10.850;2023-02-13T18:10:22;32.27;;;22.07;;
8171;SDS011;4127;47.908;10.850;2023-02-13T18:12:51;32.77;;;23.43;;
8171;SDS011;4127;47.908;10.850;2023-02-13T18:15:19;37.63;;;25.30;;
8171;SDS011;4127;47.908;10.850;2023-02-13T18:17:46;30.77;;;22.40;;
8171;SDS011;4127;47.908;10.850;2023-02-13T18:20:13;25.77;;;19.53;;
8171;SDS011;4127;47.908;10.850;2023-02-13T18:22:45;19.80;;;16.17;;
8171;SDS011;4127;47.908;10.850;2023-02-13T18:25:15;17.33;;;14.00;;
8171;SDS011;4127;47.908;10.850;2023-02-13T18:27:43;17.03;;;13.50;;
8171;SDS011;4127;47.908;10.850;2023-02-13T18:30:10;20.23;;;14.30;;
8171;SDS011;4127;47.908;10.850;2023-02-13T18:32:39;18.07;;;14.07;;
8171;SDS011;4127;47.908;10.850;2023-02-13T18:35:06;17.67;;;14.43;;
8171;SDS011;4127;47.908;10.850;2023-02-13T18:37:33;19.67;;;14.73;;
8171;SDS011;4127;47.908;10.850;2023-02-13T18:40:00;18.13;;;14.80;;
8171;SDS011;4127;47.908;10.850;2023-02-13T18:42:27;18.93;;;14.83;;
8171;SDS011;4127;47.908;10.850;2023-02-13T18:44:54;19.67;;;15.03;;
8171;SDS011;4127;47.908;10.850;2023-02-13T18:47:20;21.50;;;15.87;;
8171;SDS011;4127;47.908;10.850;2023-02-13T18:49:47;20.93;;;15.50;;
8171;SDS011;4127;47.908;10.850;2023-02-13T18:52:14;20.70;;;15.20;;
8171;SDS011;4127;47.908;10.850;2023-02-13T18:54:41;18.83;;;14.10;;
8171;SDS011;4127;47.908;10.850;2023-02-13T18:57:08;18.37;;;14.17;;
8171;SDS011;4127;47.908;10.850;2023-02-13T18:59:34;17.70;;;13.57;;
8171;SDS011;4127;47.908;10.850;2023-02-13T19:02:01;18.60;;;14.17;;
8171;SDS011;4127;47.908;10.850;2023-02-13T19:04:29;17.37;;;14.23;;
8171;SDS011;4127;47.908;10.850;2023-02-13T19:06:56;16.80;;;13.27;;
8171;SDS011;4127;47.908;10.850;2023-02-13T19:09:23;17.63;;;14.33;;
8171;SDS011;4127;47.908;10.850;2023-02-13T19:11:50;18.07;;;14.67;;
8171;SDS011;4127;47.908;10.850;2023-02-13T19:14:16;16.70;;;13.77;;
8171;SDS011;4127;47.908;10.850;2023-02-13T19:16:43;17.70;;;14.00;;
8171;SDS011;4127;47.908;10.850;2023-02-13T19:19:10;17.73;;;14.23;;
8171;SDS011;4127;47.908;10.850;2023-02-13T19:21:37;16.57;;;13.77;;
8171;SDS011;4127;47.908;10.850;2023-02-13T19:24:05;16.23;;;12.80;;
8171;SDS011;4127;47.908;10.850;2023-02-13T19:26:34;16.40;;;13.33;;
8171;SDS011;4127;47.908;10.850;2023-02-13T19:29:01;19.10;;;14.30;;
8171;SDS011;4127;47.908;10.850;2023-02-13T19:31:29;23.47;;;17.40;;
8171;SDS011;4127;47.908;10.850;2023-02-13T19:33:57;23.50;;;17.50;;
8171;SDS011;4127;47.908;10.850;2023-02-13T19:36:25;24.77;;;17.10;;
8171;SDS011;4127;47.908;10.850;2023-02-13T19:38:55;21.27;;;15.83;;
8171;SDS011;4127;47.908;10.850;2023-02-13T19:41:23;21.63;;;17.37;;
8171;SDS011;4127;47.908;10.850;2023-02-13T19:43:51;25.10;;;19.10;;
8171;SDS011;4127;47.908;10.850;2023-02-13T19:46:22;24.87;;;18.53;;
8171;SDS011;4127;47.908;10.850;2023-02-13T19:48:54;22.77;;;18.00;;
8171;SDS011;4127;47.908;10.850;2023-02-13T19:51:22;25.10;;;19.10;;
8171;SDS011;4127;47.908;10.850;2023-02-13T19:53:54;25.37;;;18.87;;
8171;SDS011;4127;47.908;10.850;2023-02-13T19:56:26;21.33;;;16.80;;
8171;SDS011;4127;47.908;10.850;2023-02-13T19:58:54;25.63;;;18.63;;
8171;SDS011;4127;47.908;10.850;2023-02-13T20:01:22;23.47;;;18.53;;
8171;SDS011;4127;47.908;10.850;2023-02-13T20:03:50;24.17;;;19.57;;
8171;SDS011;4127;47.908;10.850;2023-02-13T20:06:19;25.20;;;18.53;;
8171;SDS011;4127;47.908;10.850;2023-02-13T20:08:48;21.17;;;16.77;;
8171;SDS011;4127;47.908;10.850;2023-02-13T20:11:16;23.90;;;18.90;;
8171;SDS011;4127;47.908;10.850;2023-02-13T20:13:44;29.37;;;22.70;;
8171;SDS011;4127;47.908;10.850;2023-02-13T20:16:12;72.93;;;25.03;;
8171;SDS011;4127;47.908;10.850;2023-02-13T20:18:40;50.43;;;25.37;;
8171;SDS011;4127;47.908;10.850;2023-02-13T20:21:08;36.73;;;26.37;;
8171;SDS011;4127;47.908;10.850;2023-02-13T20:23:37;31.70;;;23.13;;
8171;SDS011;4127;47.908;10.850;2023-02-13T20:26:12;29.90;;;22.80;;
8171;SDS011;4127;47.908;10.850;2023-02-13T20:28:40;23.83;;;18.10;;
8171;SDS011;4127;47.908;10.850;2023-02-13T20:31:08;21.43;;;16.83;;
8171;SDS011;4127;47.908;10.850;2023-02-13T20:33:38;23.33;;;17.63;;
8171;SDS011;4127;47.908;10.850;2023-02-13T20:36:19;21.73;;;16.90;;
8171;SDS011;4127;47.908;10.850;2023-02-13T20:38:51;17.73;;;14.73;;
8171;SDS011;4127;47.908;10.850;2023-02-13T20:41:20;18.53;;;15.43;;
8171;SDS011;4127;47.908;10.850;2023-02-13T20:43:49;23.30;;;16.40;;
8171;SDS011;4127;47.908;10.850;2023-02-13T20:46:16;23.33;;;17.43;;
8171;SDS011;4127;47.908;10.850;2023-02-13T20:48:44;25.63;;;18.87;;
8171;SDS011;4127;47.908;10.850;2023-02-13T20:51:13;25.00;;;18.27;;
8171;SDS011;4127;47.908;10.850;2023-02-13T20:53:41;24.77;;;18.63;;
8171;SDS011;4127;47.908;10.850;2023-02-13T20:56:18;23.23;;;18.23;;
8171;SDS011;4127;47.908;10.850;2023-02-13T20:58:47;21.97;;;17.47;;
8171;SDS011;4127;47.908;10.850;2023-02-13T21:01:21;22.57;;;17.93;;
8171;SDS011;4127;47.908;10.850;2023-02-13T21:03:50;19.63;;;15.90;;
8171;SDS011;4127;47.908;10.850;2023-02-13T21:06:20;20.53;;;16.80;;
8171;SDS011;4127;47.908;10.850;2023-02-13T21:08:48;20.50;;;17.07;;
8171;SDS011;4127;47.908;10.850;2023-02-13T21:11:15;21.27;;;16.90;;
8171;SDS011;4127;47.908;10.850;2023-02-13T21:13:42;22.47;;;16.87;;
8171;SDS011;4127;47.908;10.850;2023-02-13T21:18:38;20.17;;;15.83;;
8171;SDS011;4127;47.908;10.850;2023-02-13T21:21:07;29.20;;;16.77;;
8171;SDS011;4127;47.908;10.850;2023-02-13T21:23:35;20.37;;;15.67;;
8171;SDS011;4127;47.908;10.850;2023-02-13T21:26:07;17.63;;;14.80;;
8171;SDS011;4127;47.908;10.850;2023-02-13T21:28:39;18.73;;;14.53;;
8171;SDS011;4127;47.908;10.850;2023-02-13T21:31:11;20.03;;;15.40;;
8171;SDS011;4127;47.908;10.850;2023-02-13T21:33:41;20.07;;;15.33;;
8171;SDS011;4127;47.908;10.850;2023-02-13T21:36:08;21.23;;;15.00;;
8171;SDS011;4127;47.908;10.850;2023-02-13T21:38:36;16.73;;;13.03;;
8171;SDS011;4127;47.908;10.850;2023-02-13T21:41:08;16.87;;;13.37;;
8171;SDS011;4127;47.908;10.850;2023-02-13T21:43:37;15.17;;;12.80;;
8171;SDS011;4127;47.908;10.850;2023-02-13T21:46:07;16.63;;;12.90;;
8171;SDS011;4127;47.908;10.850;2023-02-13T21:48:36;17.47;;;13.70;;
8171;SDS011;4127;47.908;10.850;2023-02-13T21:51:04;15.70;;;12.90;;
8171;SDS011;4127;47.908;10.850;2023-02-13T21:53:41;16.57;;;13.47;;
8171;SDS011;4127;47.908;10.850;2023-02-13T21:56:12;15.47;;;12.73;;
8171;SDS011;4127;47.908;10.850;2023-02-13T21:58:42;15.80;;;13.00;;
8171;SDS011;4127;47.908;10.850;2023-02-13T22:01:11;15.63;;;13.07;;
8171;SDS011;4127;47.908;10.850;2023-02-13T22:03:50;14.80;;;12.27;;
8171;SDS011;4127;47.908;10.850;2023-02-13T22:06:17;14.83;;;12.93;;
8171;SDS011;4127;47.908;10.850;2023-02-13T22:08:46;15.37;;;13.57;;
8171;SDS011;4127;47.908;10.850;2023-02-13T22:11:13;15.43;;;12.87;;
8171;SDS011;4127;47.908;10.850;2023-02-13T22:13:41;17.57;;;15.13;;
8171;SDS011;4127;47.908;10.850;2023-02-13T22:16:10;19.00;;;15.50;;
8171;SDS011;4127;47.908;10.850;2023-02-13T22:18:41;18.57;;;15.53;;
8171;SDS011;4127;47.908;10.850;2023-02-13T22:21:13;16.70;;;13.63;;
8171;SDS011;4127;47.908;10.850;2023-02-13T22:23:42;16.63;;;13.30;;
8171;SDS011;4127;47.908;10.850;2023-02-13T22:28:44;15.70;;;12.87;;
8171;SDS011;4127;47.908;10.850;2023-02-13T22:31:12;17.40;;;14.37;;
8171;SDS011;4127;47.908;10.850;2023-02-13T22:33:39;18.43;;;14.50;;
8171;SDS011;4127;47.908;10.850;2023-02-13T22:36:08;19.37;;;14.73;;
8171;SDS011;4127;47.908;10.850;2023-02-13T22:38:35;21.97;;;16.40;;
8171;SDS011;4127;47.908;10.850;2023-02-13T22:41:04;19.87;;;15.50;;
8171;SDS011;4127;47.908;10.850;2023-02-13T22:43:31;19.47;;;15.30;;
8171;SDS011;4127;47.908;10.850;2023-02-13T22:46:02;21.07;;;16.00;;
8171;SDS011;4127;47.908;10.850;2023-02-13T22:48:40;18.53;;;14.93;;
8171;SDS011;4127;47.908;10.850;2023-02-13T22:51:12;25.20;;;19.07;;
8171;SDS011;4127;47.908;10.850;2023-02-13T22:53:41;19.43;;;16.20;;
8171;SDS011;4127;47.908;10.850;2023-02-13T22:56:09;18.93;;;15.00;;
8171;SDS011;4127;47.908;10.850;2023-02-13T22:58:36;19.63;;;15.20;;
8171;SDS011;4127;47.908;10.850;2023-02-13T23:01:10;19.97;;;15.70;;
8171;SDS011;4127;47.908;10.850;2023-02-13T23:03:39;17.77;;;14.23;;
8171;SDS011;4127;47.908;10.850;2023-02-13T23:06:06;17.40;;;13.90;;
8171;SDS011;4127;47.908;10.850;2023-02-13T23:08:35;17.47;;;15.00;;
8171;SDS011;4127;47.908;10.850;2023-02-13T23:11:03;21.03;;;15.90;;
8171;SDS011;4127;47.908;10.850;2023-02-13T23:13:50;15.00;;;13.10;;
8171;SDS011;4127;47.908;10.850;2023-02-13T23:16:16;15.30;;;13.70;;
8171;SDS011;4127;47.908;10.850;2023-02-13T23:18:43;14.60;;;13.07;;
8171;SDS011;4127;47.908;10.850;2023-02-13T23:21:16;13.80;;;12.37;;
8171;SDS011;4127;47.908;10.850;2023-02-13T23:23:42;13.30;;;11.90;;
8171;SDS011;4127;47.908;10.850;2023-02-13T23:26:09;12.33;;;11.10;;
8171;SDS011;4127;47.908;10.850;2023-02-13T23:28:36;12.83;;;11.23;;
8171;SDS011;4127;47.908;10.850;2023-02-13T23:31:03;14.07;;;12.07;;
8171;SDS011;4127;47.908;10.850;2023-02-13T23:33:30;16.33;;;13.47;;
8171;SDS011;4127;47.908;10.850;2023-02-13T23:35:57;14.87;;;12.60;;
8171;SDS011;4127;47.908;10.850;2023-02-13T23:38:24;14.30;;;12.10;;
8171;SDS011;4127;47.908;10.850;2023-02-13T23:40:51;13.77;;;11.50;;
8171;SDS011;4127;47.908;10.850;2023-02-13T23:43:17;12.50;;;11.20;;